createdAt,value
2019-05-16T06:52:06.355Z,5120.00
2019-05-16T06:53:06.320Z,5012.00
2019-05-16T06:55:00.858Z,4792.00
2019-05-16T06:56:00.319Z,4980.00
2019-05-16T06:57:57.173Z,4984.00
2019-05-16T06:58:54.531Z,5180.00
2019-05-16T07:00:51.711Z,5548.00
2019-05-16T07:01:50.003Z,5400.00
2019-05-16T07:02:49.925Z,5100.00
2019-05-16T07:03:50.593Z,4760.00
2019-05-16T07:04:50.460Z,4364.00
2019-05-16T07:05:50.322Z,4052.00
2019-05-16T07:06:57.910Z,3896.00
2019-05-16T07:07:50.698Z,3932.00
2019-05-16T07:08:50.800Z,3892.00
2019-05-16T07:09:58.104Z,3936.00
2019-05-16T07:10:50.493Z,4000.00
2019-05-16T07:11:50.319Z,4152.00
2019-05-16T07:12:50.404Z,4248.00
2019-05-16T07:13:51.711Z,4348.00
2019-05-16T07:14:50.356Z,4160.00
2019-05-16T07:15:50.246Z,4008.00
2019-05-16T07:16:49.692Z,3904.00
2019-05-16T07:17:50.476Z,3952.00
2019-05-16T07:18:50.661Z,3900.00
2019-05-16T07:19:50.256Z,3876.00
2019-05-16T07:20:50.750Z,3940.00
2019-05-16T07:21:50.782Z,4056.00
2019-05-16T07:22:50.285Z,4292.00
2019-05-16T07:23:50.880Z,4492.00
2019-05-16T07:24:50.466Z,4904.00
2019-05-16T07:25:50.484Z,5112.00
2019-05-16T07:26:50.010Z,5748.00
2019-05-16T07:27:50.978Z,5992.00
2019-05-16T07:28:51.228Z,6316.00
2019-05-16T07:29:50.647Z,6600.00
2019-05-16T07:30:49.993Z,6760.00
2019-05-16T07:31:48.512Z,6956.00
2019-05-16T07:32:49.976Z,7212.00
2019-05-16T07:33:50.279Z,7108.00
2019-05-16T07:34:49.878Z,6940.00
2019-05-16T07:35:50.896Z,6544.00
2019-05-16T07:36:50.196Z,6152.00
2019-05-16T07:37:50.012Z,5976.00
2019-05-16T07:38:50.612Z,5764.00
2019-05-16T07:39:51.097Z,5668.00
2019-05-16T07:40:50.799Z,5492.00
2019-05-16T07:41:50.771Z,5224.00
2019-05-16T07:42:50.761Z,4984.00
2019-05-16T07:43:50.508Z,4780.00
2019-05-16T07:44:50.554Z,4620.00
2019-05-16T07:45:50.915Z,4584.00
2019-05-16T07:46:51.273Z,4768.00
2019-05-16T07:47:50.646Z,5132.00
2019-05-16T07:48:51.841Z,5420.00
2019-05-16T07:49:50.131Z,5848.00
2019-05-16T07:50:50.011Z,6072.00
2019-05-16T07:51:49.838Z,6420.00
2019-05-16T07:52:51.196Z,6436.00
2019-05-16T07:53:50.527Z,6456.00
2019-05-16T07:54:50.779Z,6456.00
2019-05-16T07:55:50.894Z,6644.00
2019-05-16T07:56:57.126Z,7004.00
2019-05-16T07:57:50.625Z,7376.00
2019-05-16T07:58:50.791Z,7656.00
2019-05-16T07:59:50.539Z,7972.00
2019-05-16T08:00:58.048Z,8264.00
2019-05-16T08:01:53.821Z,8660.00
2019-05-16T08:02:50.616Z,9576.00
2019-05-16T08:03:50.886Z,10160.00
2019-05-16T08:04:50.182Z,11496.00
2019-05-16T08:05:51.481Z,11968.00
2019-05-16T08:06:50.213Z,11088.00
2019-05-16T08:07:50.854Z,11084.00
2019-05-16T08:08:51.054Z,11188.00
2019-05-16T08:09:50.454Z,11280.00
2019-05-16T08:10:51.023Z,11684.00
2019-05-16T08:11:50.151Z,11700.00
2019-05-16T08:12:51.333Z,11892.00
2019-05-16T08:13:50.705Z,12404.00
2019-05-16T08:14:50.155Z,12652.00
2019-05-16T08:15:50.361Z,12708.00
2019-05-16T08:16:50.192Z,12628.00
2019-05-16T08:17:51.163Z,12416.00
2019-05-16T08:18:50.694Z,11920.00
2019-05-16T08:19:50.613Z,11120.00
2019-05-16T08:21:50.468Z,10036.00
2019-05-16T08:22:50.761Z,9580.00
2019-05-16T08:23:50.358Z,9276.00
2019-05-16T08:24:50.534Z,9024.00
2019-05-16T08:25:50.665Z,8900.00
2019-05-16T08:26:51.372Z,8792.00
2019-05-16T08:27:52.033Z,8796.00
2019-05-16T08:28:50.357Z,8288.00
2019-05-16T08:29:51.348Z,8140.00
2019-05-16T08:30:52.735Z,7580.00
2019-05-16T08:31:52.355Z,7040.00
2019-05-16T08:32:52.423Z,6780.00
2019-05-16T08:33:54.261Z,6724.00
2019-05-16T08:34:51.395Z,6592.00
2019-05-16T08:35:51.541Z,6568.00
2019-05-16T08:36:51.863Z,6644.00
2019-05-16T08:37:51.445Z,7028.00
2019-05-16T08:39:50.964Z,7528.00
2019-05-16T08:41:06.456Z,8000.00
2019-05-16T08:41:51.914Z,8476.00
2019-05-16T08:42:51.565Z,8952.00
2019-05-16T08:43:53.378Z,9588.00
2019-05-16T08:44:51.739Z,10216.00
2019-05-16T08:45:51.648Z,10944.00
2019-05-16T08:46:54.807Z,11720.00
2019-05-16T08:47:52.513Z,13380.00
2019-05-16T08:49:52.135Z,13828.00
2019-05-16T08:50:08.651Z,7348.00
2019-05-16T08:50:53.933Z,13872.00
2019-05-16T08:51:52.830Z,13880.00
2019-05-16T08:52:52.919Z,14300.00
2019-05-16T08:53:50.467Z,14792.00
2019-05-16T08:54:51.048Z,15328.00
2019-05-16T08:55:50.606Z,15208.00
2019-05-16T08:56:51.061Z,14904.00
2019-05-16T08:57:53.048Z,14604.00
2019-05-16T08:58:54.072Z,14588.00
2019-05-16T08:59:52.413Z,14656.00
2019-05-16T09:00:54.763Z,14268.00
2019-05-16T09:01:57.417Z,13672.00
2019-05-16T09:02:52.102Z,13024.00
2019-05-16T09:03:52.038Z,12524.00
2019-05-16T09:04:53.105Z,12224.00
2019-05-16T09:05:53.033Z,11752.00
2019-05-16T09:06:52.483Z,11484.00
2019-05-16T09:07:49.465Z,11240.00
2019-05-16T09:08:49.442Z,11052.00
2019-05-16T09:09:51.866Z,10916.00
2019-05-16T09:10:20.786Z,10484.00
2019-05-16T09:10:30.560Z,13680.00
2019-05-16T09:11:00.943Z,10776.00
2019-05-16T09:11:49.476Z,10556.00
2019-05-16T09:12:49.489Z,10340.00
2019-05-16T09:13:49.494Z,10316.00
2019-05-16T09:14:49.504Z,10816.00
2019-05-16T09:15:49.542Z,11140.00
2019-05-16T09:16:49.529Z,11648.00
2019-05-16T09:17:49.554Z,11932.00
2019-05-16T09:18:51.024Z,12536.00
2019-05-16T09:19:49.566Z,13924.00
2019-05-16T09:20:50.614Z,14816.00
2019-05-16T09:21:49.581Z,17472.00
2019-05-16T09:22:49.586Z,18112.00
2019-05-16T09:23:49.602Z,15604.00
2019-05-16T09:24:49.611Z,14900.00
2019-05-16T09:25:49.636Z,16896.00
2019-05-16T09:26:49.635Z,15460.00
2019-05-16T09:27:49.645Z,14656.00
2019-05-16T09:28:49.663Z,14208.00
2019-05-16T09:29:49.680Z,13000.00
2019-05-16T09:30:49.681Z,12824.00
2019-05-16T09:32:07.828Z,13952.00
2019-05-16T09:32:49.723Z,12684.00
2019-05-16T09:33:49.726Z,12348.00
2019-05-16T09:34:49.766Z,12100.00
2019-05-16T09:35:49.747Z,12228.00
2019-05-16T09:36:49.778Z,13356.00
2019-05-16T09:37:49.777Z,22624.00
2019-05-16T09:38:49.786Z,23200.00
2019-05-16T09:39:49.804Z,19072.00
2019-05-16T09:40:49.809Z,20256.00
2019-05-16T09:41:54.877Z,13796.00
2019-05-16T09:42:49.835Z,13220.00
2019-05-16T09:43:49.840Z,13288.00
2019-05-16T09:44:49.858Z,11820.00
2019-05-16T09:45:49.905Z,11196.00
2019-05-16T09:46:49.885Z,10996.00
2019-05-16T09:47:49.901Z,12088.00
2019-05-16T09:48:49.909Z,12212.00
2019-05-16T09:49:49.915Z,11096.00
2019-05-16T09:50:49.928Z,10660.00
2019-05-16T09:52:49.954Z,10648.00
2019-05-16T09:53:49.966Z,10428.00
2019-05-16T09:54:49.978Z,9956.00
2019-05-16T09:55:49.988Z,9652.00
2019-05-16T09:56:50.041Z,10008.00
2019-05-16T09:57:50.030Z,9980.00
2019-05-16T09:58:50.038Z,10176.00
2019-05-16T09:59:50.048Z,11044.00
2019-05-16T10:00:50.056Z,13208.00
2019-05-16T10:01:50.066Z,14436.00
2019-05-16T10:02:50.084Z,13356.00
2019-05-16T10:03:50.086Z,12024.00
2019-05-16T10:04:50.099Z,11068.00
2019-05-16T10:05:50.098Z,10768.00
2019-05-16T10:06:50.122Z,10748.00
2019-05-16T10:07:50.142Z,11584.00
2019-05-16T10:08:50.162Z,12068.00
2019-05-16T10:09:50.511Z,11132.00
2019-05-16T10:10:50.175Z,9228.00
2019-05-16T10:12:05.525Z,7968.00
2019-05-16T10:12:50.202Z,7316.00
2019-05-16T10:13:50.202Z,6964.00
2019-05-16T10:14:50.210Z,6968.00
2019-05-16T10:15:50.220Z,7472.00
2019-05-16T10:16:50.251Z,8216.00
2019-05-16T10:17:50.247Z,8252.00
2019-05-16T10:18:50.255Z,8032.00
2019-05-16T10:19:50.262Z,7872.00
2019-05-16T10:20:50.274Z,7324.00
2019-05-16T10:21:50.286Z,6908.00
2019-05-16T10:22:50.791Z,6836.00
2019-05-16T10:23:50.328Z,7096.00
2019-05-16T10:24:50.331Z,6524.00
2019-05-16T10:25:50.340Z,6280.00
2019-05-16T10:26:53.836Z,6204.00
2019-05-16T10:27:50.352Z,6112.00
2019-05-16T10:28:50.364Z,6080.00
2019-05-16T10:29:50.372Z,5972.00
2019-05-16T10:30:50.432Z,5828.00
2019-05-16T10:31:53.217Z,5704.00
2019-05-16T10:32:50.409Z,5524.00
2019-05-16T10:33:50.416Z,5236.00
2019-05-16T10:34:50.429Z,5084.00
2019-05-16T10:35:50.445Z,5060.00
2019-05-16T10:36:50.451Z,5096.00
2019-05-16T10:37:50.454Z,5320.00
2019-05-16T10:38:50.458Z,5344.00
2019-05-16T10:39:50.484Z,5136.00
2019-05-16T10:40:50.546Z,5056.00
2019-05-16T10:41:50.500Z,4912.00
2019-05-16T10:43:50.508Z,4856.00
2019-05-16T10:44:50.541Z,4856.00
2019-05-16T10:45:53.540Z,4836.00
2019-05-16T10:46:50.547Z,4904.00
2019-05-16T10:47:50.553Z,4836.00
2019-05-16T10:48:50.557Z,4644.00
2019-05-16T10:49:50.567Z,4464.00
2019-05-16T10:50:50.605Z,4320.00
2019-05-16T10:51:50.615Z,4200.00
2019-05-16T10:53:13.321Z,4308.00
2019-05-16T10:54:05.732Z,4472.00
2019-05-16T10:54:58.091Z,4528.00
2019-05-16T10:55:50.637Z,4544.00
2019-05-16T10:56:50.885Z,4460.00
2019-05-16T10:57:50.830Z,4420.00
2019-05-16T10:59:14.653Z,4492.00
2019-05-16T11:00:05.492Z,4348.00
2019-05-16T11:01:17.794Z,4296.00
2019-05-16T11:01:50.698Z,4272.00
2019-05-16T11:02:50.772Z,4252.00
2019-05-16T11:03:50.724Z,4212.00
2019-05-16T11:05:02.194Z,4148.00
2019-05-16T11:06:03.023Z,4164.00
2019-05-16T11:06:50.734Z,4140.00
2019-05-16T11:08:50.755Z,4172.00
2019-05-16T11:09:58.635Z,4268.00
2019-05-16T11:10:50.809Z,4464.00
2019-05-16T11:11:50.784Z,4792.00
2019-05-16T11:12:55.161Z,5288.00
2019-05-16T11:13:51.289Z,5780.00
2019-05-16T11:14:50.808Z,6300.00
2019-05-16T11:15:50.821Z,6540.00
2019-05-16T11:16:50.850Z,6404.00
2019-05-16T11:17:50.845Z,6196.00
2019-05-16T11:18:50.847Z,5644.00
2019-05-16T11:19:50.859Z,5264.00
2019-05-16T11:20:50.870Z,5212.00
2019-05-16T11:21:50.866Z,4872.00
2019-05-16T11:22:50.877Z,4480.00
2019-05-16T11:23:50.891Z,4356.00
2019-05-16T11:24:50.903Z,4308.00
2019-05-16T11:25:50.917Z,4344.00
2019-05-16T11:26:50.927Z,4216.00
2019-05-16T11:27:50.935Z,4148.00
2019-05-16T11:28:50.944Z,4064.00
2019-05-16T11:29:50.954Z,4044.00
2019-05-16T11:30:50.992Z,4072.00
2019-05-16T11:31:50.984Z,4212.00
2019-05-16T11:32:50.977Z,4248.00
2019-05-16T11:33:50.995Z,4580.00
2019-05-16T11:34:51.000Z,4880.00
2019-05-16T11:35:51.007Z,5140.00
2019-05-16T11:36:51.051Z,5676.00
2019-05-16T11:37:51.037Z,5908.00
2019-05-16T11:38:51.035Z,6328.00
2019-05-16T11:39:51.045Z,6552.00
2019-05-16T11:40:51.060Z,6976.00
2019-05-16T11:41:51.054Z,7408.00
2019-05-16T11:43:05.546Z,8080.00
2019-05-16T11:43:51.080Z,8644.00
2019-05-16T11:44:51.095Z,9568.00
2019-05-16T11:45:51.101Z,10744.00
2019-05-16T11:46:51.250Z,12144.00
2019-05-16T11:47:51.125Z,12668.00
2019-05-16T11:48:51.137Z,12844.00
2019-05-16T11:49:51.148Z,12944.00
2019-05-16T11:50:51.150Z,13140.00
2019-05-16T11:51:51.160Z,12620.00
2019-05-16T11:52:51.185Z,12884.00
2019-05-16T11:53:51.172Z,12980.00
2019-05-16T11:54:51.192Z,14044.00
2019-05-16T11:55:56.051Z,16352.00
2019-05-16T11:56:51.218Z,17824.00
2019-05-16T11:57:51.225Z,16276.00
2019-05-16T11:58:51.243Z,15984.00
2019-05-16T11:59:51.261Z,16992.00
2019-05-16T12:00:51.268Z,18464.00
2019-05-16T12:01:51.275Z,18336.00
2019-05-16T12:02:51.286Z,18560.00
2019-05-16T12:03:51.306Z,18656.00
2019-05-16T12:04:51.310Z,17632.00
2019-05-16T12:05:51.341Z,15660.00
2019-05-16T12:06:51.338Z,14768.00
2019-05-16T12:07:51.355Z,13660.00
2019-05-16T12:08:51.361Z,11928.00
2019-05-16T12:09:55.395Z,10408.00
2019-05-16T12:10:51.387Z,9624.00
2019-05-16T12:12:03.151Z,9380.00
2019-05-16T12:12:51.404Z,9120.00
2019-05-16T12:13:51.431Z,9452.00
2019-05-16T12:14:54.893Z,9408.00
2019-05-16T12:15:51.441Z,9580.00
2019-05-16T12:16:51.457Z,9800.00
2019-05-16T12:18:00.743Z,9920.00
2019-05-16T12:18:51.471Z,10192.00
2019-05-16T12:19:52.925Z,11272.00
2019-05-16T12:20:51.492Z,15268.00
2019-05-16T12:21:51.515Z,18688.00
2019-05-16T12:22:51.529Z,18880.00
2019-05-16T12:23:51.541Z,16340.00
2019-05-16T12:24:51.544Z,14392.00
2019-05-16T12:25:51.573Z,14032.00
2019-05-16T12:26:51.575Z,14232.00
2019-05-16T12:27:51.588Z,15292.00
2019-05-16T12:28:51.595Z,14220.00
2019-05-16T12:29:55.543Z,12728.00
2019-05-16T12:30:51.618Z,11124.00
2019-05-16T12:31:57.769Z,9864.00
2019-05-16T12:32:51.648Z,9304.00
2019-05-16T12:33:51.684Z,9128.00
2019-05-16T12:34:51.689Z,8724.00
2019-05-16T12:35:51.681Z,8212.00
2019-05-16T12:36:51.698Z,7788.00
2019-05-16T12:37:52.067Z,7368.00
2019-05-16T12:38:51.732Z,7036.00
2019-05-16T12:39:51.731Z,6364.00
2019-05-16T12:40:51.744Z,6036.00
2019-05-16T12:41:51.766Z,5624.00
2019-05-16T12:42:54.303Z,5420.00
2019-05-16T12:43:53.583Z,5224.00
2019-05-16T12:44:51.796Z,5232.00
2019-05-16T12:45:51.800Z,5300.00
2019-05-16T12:46:51.807Z,5512.00
2019-05-16T12:47:51.890Z,5488.00
2019-05-16T12:48:51.840Z,5408.00
2019-05-16T12:49:51.844Z,5160.00
2019-05-16T12:50:51.870Z,4880.00
2019-05-16T12:51:51.871Z,4540.00
2019-05-16T12:52:51.871Z,4200.00
2019-05-16T12:53:51.927Z,3984.00
2019-05-16T12:54:51.895Z,3964.00
2019-05-16T12:55:51.899Z,4044.00
2019-05-16T12:56:51.915Z,4224.00
2019-05-16T12:57:58.880Z,4296.00
2019-05-16T12:58:51.935Z,4568.00
2019-05-16T12:59:52.651Z,4732.00
2019-05-16T13:00:57.718Z,4896.00
2019-05-16T13:01:51.979Z,5036.00
2019-05-16T13:02:51.978Z,4876.00
2019-05-16T13:03:52.007Z,4716.00
2019-05-16T13:04:51.991Z,4628.00
2019-05-16T13:05:52.007Z,4592.00
2019-05-16T13:06:52.013Z,4408.00
2019-05-16T13:07:52.031Z,4448.00
2019-05-16T13:08:53.603Z,4504.00
2019-05-16T13:09:52.045Z,4644.00
2019-05-16T13:10:52.054Z,4624.00
2019-05-16T13:11:52.068Z,4728.00
2019-05-16T13:12:52.069Z,4716.00
2019-05-16T13:14:03.522Z,4780.00
2019-05-16T13:14:52.089Z,4584.00
2019-05-16T13:15:52.104Z,4380.00
2019-05-16T13:16:52.114Z,4224.00
2019-05-16T13:17:52.131Z,4092.00
2019-05-16T13:18:52.123Z,4128.00
2019-05-16T13:19:52.133Z,4356.00
2019-05-16T13:20:52.149Z,4520.00
2019-05-16T13:21:52.157Z,4640.00
2019-05-16T13:22:52.163Z,4840.00
2019-05-16T13:23:52.172Z,4536.00
2019-05-16T13:24:52.189Z,4552.00
2019-05-16T13:25:52.197Z,4604.00
2019-05-16T13:26:52.201Z,4676.00
2019-05-16T13:27:52.203Z,4504.00
2019-05-16T13:28:52.230Z,4492.00
2019-05-16T13:29:52.234Z,4660.00
2019-05-16T13:30:52.249Z,4320.00
2019-05-16T13:31:52.246Z,4232.00
2019-05-16T13:32:52.258Z,4200.00
2019-05-16T13:33:52.277Z,4348.00
2019-05-16T13:34:52.279Z,4488.00
2019-05-16T13:35:52.294Z,4688.00
2019-05-16T13:36:52.310Z,4960.00
2019-05-16T13:37:52.313Z,5256.00
2019-05-16T13:38:52.941Z,5328.00
2019-05-16T13:39:52.326Z,5408.00
2019-05-16T13:40:52.338Z,5592.00
2019-05-16T13:41:52.352Z,5744.00
2019-05-16T13:42:52.408Z,6000.00
2019-05-16T13:43:52.366Z,6336.00
2019-05-16T13:44:52.369Z,6508.00
2019-05-16T13:45:52.382Z,6720.00
2019-05-16T13:46:52.398Z,6788.00
2019-05-16T13:47:52.404Z,6812.00
2019-05-16T13:48:52.417Z,6900.00
2019-05-16T13:49:52.422Z,7116.00
2019-05-16T13:51:06.350Z,7276.00
2019-05-16T13:51:52.618Z,7468.00
2019-05-16T13:52:52.458Z,7204.00
2019-05-16T13:53:52.466Z,7224.00
2019-05-16T13:54:52.471Z,7332.00
2019-05-16T13:55:52.483Z,7356.00
2019-05-16T13:56:52.495Z,7104.00
2019-05-16T13:57:52.505Z,6588.00
2019-05-16T13:58:52.509Z,6088.00
2019-05-16T13:59:52.521Z,5724.00
2019-05-16T14:00:52.525Z,5536.00
2019-05-16T14:01:52.537Z,5628.00
2019-05-16T14:02:52.552Z,5640.00
2019-05-16T14:03:52.559Z,5536.00
2019-05-16T14:04:52.570Z,5436.00
2019-05-16T14:05:52.586Z,5436.00
2019-05-16T14:06:55.611Z,5324.00
2019-05-16T14:07:52.592Z,5404.00
2019-05-16T14:08:52.610Z,5372.00
2019-05-16T14:09:52.619Z,5136.00
2019-05-16T14:10:52.630Z,4796.00
2019-05-16T14:11:52.727Z,4408.00
2019-05-16T14:12:52.656Z,4156.00
2019-05-16T14:13:52.672Z,3880.00
2019-05-16T14:14:52.671Z,3764.00
2019-05-16T14:15:52.680Z,3716.00
2019-05-16T14:16:52.682Z,3728.00
2019-05-16T14:17:52.706Z,3848.00
2019-05-16T14:18:52.706Z,3904.00
2019-05-16T14:19:52.716Z,3972.00
2019-05-16T14:20:52.724Z,4120.00
2019-05-16T14:21:52.728Z,4044.00
2019-05-16T14:22:52.741Z,4200.00
2019-05-16T14:23:53.521Z,4412.00
2019-05-16T14:24:52.754Z,4784.00
2019-05-16T14:25:52.768Z,4872.00
2019-05-16T14:26:52.782Z,5008.00
2019-05-16T14:27:52.789Z,4976.00
2019-05-16T14:28:52.808Z,5108.00
2019-05-16T14:29:52.847Z,5264.00
2019-05-16T14:30:52.824Z,5476.00
2019-05-16T14:31:52.827Z,5780.00
2019-05-16T14:32:52.833Z,6060.00
2019-05-16T14:33:52.846Z,6260.00
2019-05-16T14:34:52.870Z,6308.00
2019-05-16T14:35:52.868Z,6432.00
2019-05-16T14:36:52.892Z,6124.00
2019-05-16T14:37:57.534Z,5820.00
2019-05-16T14:38:52.911Z,5604.00
2019-05-16T14:39:52.903Z,5340.00
2019-05-16T14:40:52.908Z,5160.00
2019-05-16T14:41:52.917Z,5100.00
2019-05-16T14:42:52.932Z,4960.00
2019-05-16T14:43:52.956Z,4684.00
2019-05-16T14:45:06.350Z,4556.00
2019-05-16T14:45:52.963Z,4364.00
2019-05-16T14:46:52.961Z,4148.00
2019-05-16T14:47:52.983Z,4100.00
2019-05-16T14:48:52.987Z,3924.00
2019-05-16T14:49:53.002Z,3920.00
2019-05-16T14:50:53.011Z,4040.00
2019-05-16T14:51:53.030Z,4088.00
2019-05-16T14:52:53.021Z,4136.00
2019-05-16T14:53:53.042Z,3972.00
2019-05-16T14:54:53.171Z,3676.00
2019-05-16T14:55:53.066Z,3320.00
2019-05-16T14:56:53.072Z,3080.00
2019-05-16T14:57:53.091Z,2800.00
2019-05-16T14:58:53.085Z,2592.00
2019-05-16T14:59:53.110Z,2488.00
2019-05-16T15:00:53.103Z,2476.00
2019-05-16T15:01:53.135Z,2568.00
2019-05-16T15:02:53.125Z,2632.00
2019-05-16T15:03:53.137Z,2676.00
2019-05-16T15:04:53.149Z,2796.00
2019-05-16T15:05:55.389Z,2720.00
2019-05-16T15:06:53.156Z,2648.00
2019-05-16T15:07:53.170Z,2636.00
2019-05-16T15:08:53.167Z,2708.00
2019-05-16T15:09:53.192Z,2728.00
2019-05-16T15:10:53.192Z,2704.00
2019-05-16T15:11:53.201Z,2676.00
2019-05-16T15:12:53.209Z,2572.00
2019-05-16T15:13:53.213Z,2440.00
2019-05-16T15:14:53.239Z,2352.00
2019-05-16T15:15:53.231Z,2308.00
2019-05-16T15:16:53.244Z,2284.00
2019-05-16T15:17:53.257Z,2364.00
2019-05-16T15:18:53.279Z,2524.00
2019-05-16T15:19:53.269Z,2592.00
2019-05-16T15:20:53.278Z,2620.00
2019-05-16T15:21:53.295Z,2688.00
2019-05-16T15:22:53.291Z,2700.00
2019-05-16T15:24:53.320Z,2460.00
2019-05-16T15:25:53.329Z,2428.00
2019-05-16T15:26:53.332Z,2436.00
2019-05-16T15:27:53.341Z,2380.00
2019-05-16T15:28:53.344Z,2372.00
2019-05-16T15:29:53.364Z,2372.00
2019-05-16T15:30:53.372Z,2364.00
2019-05-16T15:31:53.390Z,2332.00
2019-05-16T15:32:53.399Z,2304.00
2019-05-16T15:33:53.380Z,2256.00
2019-05-16T15:34:53.402Z,2228.00
2019-05-16T15:35:53.458Z,2184.00
2019-05-16T15:36:53.417Z,2240.00
2019-05-16T15:37:53.436Z,2260.00
2019-05-16T15:38:53.434Z,2288.00
2019-05-16T15:39:54.255Z,2280.00
2019-05-16T15:40:53.461Z,2184.00
2019-05-16T15:41:53.467Z,2112.00
2019-05-16T15:42:53.479Z,1988.00
2019-05-16T15:43:53.643Z,1912.00
2019-05-16T15:44:53.485Z,1808.00
2019-05-16T15:45:53.523Z,1692.00
2019-05-16T15:46:53.494Z,1628.00
2019-05-16T15:47:53.510Z,1592.00
2019-05-16T15:48:53.523Z,1532.00
2019-05-16T15:49:53.536Z,1428.00
2019-05-16T15:50:53.547Z,1436.00
2019-05-16T15:51:53.546Z,1436.00
2019-05-16T15:52:53.577Z,1392.00
2019-05-16T15:53:53.573Z,1396.00
2019-05-16T15:54:53.569Z,1348.00
2019-05-16T15:55:53.691Z,1316.00
2019-05-16T15:56:53.582Z,1312.00
2019-05-16T15:57:53.594Z,1344.00
2019-05-16T15:58:53.599Z,1392.00
2019-05-16T15:59:53.607Z,1420.00
2019-05-16T16:00:53.620Z,1536.00
2019-05-16T16:01:53.624Z,1616.00
2019-05-16T16:02:53.639Z,1732.00
2019-05-16T16:03:53.648Z,1948.00
2019-05-16T16:04:53.651Z,2144.00
2019-05-16T16:05:53.660Z,2312.00
2019-05-16T16:06:53.676Z,2484.00
2019-05-16T16:07:53.692Z,2608.00
2019-05-16T16:08:53.694Z,2852.00
2019-05-16T16:10:53.699Z,3184.00
2019-05-16T16:11:53.712Z,3148.00
2019-05-16T16:12:53.718Z,3004.00
2019-05-16T16:13:53.731Z,2768.00
2019-05-16T16:14:53.738Z,2520.00
2019-05-16T16:15:54.609Z,2360.00
2019-05-16T16:16:53.753Z,2224.00
2019-05-16T16:17:53.759Z,2144.00
2019-05-16T16:18:53.814Z,2092.00
2019-05-16T16:19:53.787Z,2044.00
2019-05-16T16:20:53.779Z,1996.00
2019-05-16T16:21:53.783Z,1904.00
2019-05-16T16:22:53.797Z,1788.00
2019-05-16T16:23:53.815Z,1708.00
2019-05-16T16:24:53.804Z,1620.00
2019-05-16T16:25:53.825Z,1540.00
2019-05-16T16:26:53.820Z,1416.00
2019-05-16T16:27:53.844Z,1304.00
2019-05-16T16:28:53.841Z,1256.00
2019-05-16T16:29:53.873Z,1220.00
2019-05-16T16:30:56.741Z,1180.00
2019-05-16T16:31:53.877Z,1140.00
2019-05-16T16:32:53.888Z,1096.00
2019-05-16T16:33:53.888Z,1068.00
2019-05-16T16:34:53.900Z,1028.00
2019-05-16T16:35:53.935Z,964.00
2019-05-16T16:36:53.905Z,904.00
2019-05-16T16:37:53.916Z,880.00
2019-05-16T16:38:53.926Z,876.00
2019-05-16T16:39:53.929Z,848.00
2019-05-16T16:40:53.935Z,856.00
2019-05-16T16:41:56.745Z,840.00
2019-05-16T16:42:56.649Z,796.00
2019-05-16T16:43:53.979Z,760.00
2019-05-16T16:44:56.451Z,704.00
2019-05-16T16:46:06.259Z,652.00
2019-05-16T16:46:53.988Z,628.00
2019-05-16T16:47:54.029Z,640.00
2019-05-16T16:48:53.995Z,668.00
2019-05-16T16:49:54.029Z,696.00
2019-05-16T16:50:54.018Z,744.00
2019-05-16T16:51:57.065Z,772.00
2019-05-16T16:52:56.434Z,764.00
2019-05-16T16:53:54.048Z,760.00
2019-05-16T16:54:56.690Z,752.00
2019-05-16T16:55:56.658Z,756.00
2019-05-16T16:56:54.076Z,776.00
2019-05-16T16:57:56.691Z,780.00
2019-05-16T16:58:54.079Z,788.00
2019-05-16T16:59:54.097Z,808.00
2019-05-16T17:00:54.099Z,800.00
2019-05-16T17:01:54.103Z,800.00
2019-05-16T17:03:03.220Z,792.00
2019-05-16T17:03:55.356Z,772.00
2019-05-16T17:04:54.129Z,764.00
2019-05-16T17:05:54.167Z,764.00
2019-05-16T17:06:54.137Z,768.00
2019-05-16T17:07:56.998Z,768.00
2019-05-16T17:08:56.639Z,776.00
2019-05-16T17:09:56.255Z,772.00
2019-05-16T17:10:54.186Z,756.00
2019-05-16T17:11:54.188Z,768.00
2019-05-16T17:12:54.199Z,756.00
2019-05-16T17:13:56.437Z,760.00
2019-05-16T17:14:54.203Z,752.00
2019-05-16T17:15:56.687Z,736.00
2019-05-16T17:16:54.240Z,716.00
2019-05-16T17:17:54.252Z,716.00
2019-05-16T17:18:56.740Z,744.00
2019-05-16T17:19:56.588Z,768.00
2019-05-16T17:20:56.814Z,816.00
2019-05-16T17:22:06.473Z,860.00
2019-05-16T17:22:54.255Z,864.00
2019-05-16T17:23:54.277Z,876.00
2019-05-16T17:24:56.529Z,928.00
2019-05-16T17:25:56.414Z,960.00
2019-05-16T17:26:54.287Z,976.00
2019-05-16T17:27:54.332Z,980.00
2019-05-16T17:28:57.124Z,944.00
2019-05-16T17:29:56.680Z,880.00
2019-05-16T17:30:56.500Z,808.00
2019-05-16T17:32:04.747Z,744.00
2019-05-16T17:32:56.551Z,724.00
2019-05-16T17:33:57.539Z,688.00
2019-05-16T17:34:54.342Z,676.00
2019-05-16T17:35:54.361Z,704.00
2019-05-16T17:36:57.089Z,720.00
2019-05-16T17:37:54.385Z,720.00
2019-05-16T17:38:54.387Z,728.00
2019-05-16T17:39:56.798Z,712.00
2019-05-16T17:40:56.810Z,676.00
2019-05-16T17:41:57.345Z,608.00
2019-05-16T17:42:56.714Z,540.00
2019-05-16T17:43:56.324Z,484.00
2019-05-16T17:44:56.460Z,456.00
2019-05-16T17:45:54.434Z,436.00
2019-05-16T17:46:57.672Z,424.00
2019-05-16T17:47:54.456Z,416.00
2019-05-16T17:48:56.926Z,400.00
2019-05-16T17:49:54.482Z,400.00
2019-05-16T17:50:56.892Z,404.00
2019-05-16T17:51:54.477Z,400.00
2019-05-16T17:52:54.501Z,416.00
2019-05-16T17:53:54.496Z,436.00
2019-05-16T17:54:54.505Z,444.00
2019-05-16T17:55:57.142Z,444.00
2019-05-16T17:56:56.665Z,456.00
2019-05-16T17:57:56.890Z,452.00
2019-05-16T17:58:56.785Z,464.00
2019-05-16T17:59:57.255Z,424.00
2019-05-16T18:00:57.781Z,416.00
2019-05-16T18:01:56.801Z,424.00
2019-05-16T18:02:56.903Z,416.00
2019-05-16T18:03:57.080Z,404.00
2019-05-16T18:04:56.603Z,400.00
2019-05-16T18:05:56.599Z,408.00
2019-05-16T18:06:57.560Z,412.00
2019-05-16T18:07:56.435Z,440.00
2019-05-16T18:08:57.015Z,440.00
2019-05-16T18:09:56.717Z,476.00
2019-05-16T18:10:56.507Z,540.00
2019-05-16T18:11:54.657Z,572.00
2019-05-16T18:12:56.711Z,588.00
2019-05-16T18:13:56.901Z,636.00
2019-05-16T18:14:57.023Z,660.00
2019-05-16T18:15:56.588Z,636.00
2019-05-16T18:17:01.594Z,604.00
2019-05-16T18:17:56.139Z,556.00
2019-05-16T18:18:54.688Z,516.00
2019-05-16T18:19:54.691Z,512.00
2019-05-16T18:20:58.935Z,496.00
2019-05-16T18:21:56.985Z,472.00
2019-05-16T18:22:56.836Z,452.00
2019-05-16T18:23:54.715Z,436.00
2019-05-16T18:24:54.738Z,424.00
2019-05-16T18:25:54.736Z,400.00
2019-05-16T18:26:57.012Z,380.00
2019-05-16T18:27:55.641Z,368.00
2019-05-16T18:28:54.751Z,360.00
2019-05-16T18:29:54.766Z,352.00
2019-05-16T18:30:56.621Z,336.00
2019-05-16T18:31:54.777Z,320.00
2019-05-16T18:32:54.790Z,324.00
2019-05-16T18:33:56.567Z,344.00
2019-05-16T18:34:56.439Z,352.00
2019-05-16T18:35:54.806Z,364.00
2019-05-16T18:36:57.072Z,352.00
2019-05-16T18:37:56.878Z,348.00
2019-05-16T18:38:57.259Z,352.00
2019-05-16T18:39:56.471Z,340.00
2019-05-16T18:40:56.623Z,316.00
2019-05-16T18:41:56.543Z,304.00
2019-05-16T18:42:56.997Z,300.00
2019-05-16T18:43:56.588Z,308.00
2019-05-16T18:44:56.554Z,316.00
2019-05-16T18:45:56.666Z,316.00
2019-05-16T18:47:04.800Z,312.00
2019-05-16T18:47:56.282Z,300.00
2019-05-16T18:48:56.512Z,304.00
2019-05-16T18:49:57.210Z,296.00
2019-05-16T18:50:57.121Z,272.00
2019-05-16T18:51:56.926Z,244.00
2019-05-16T18:52:56.965Z,224.00
2019-05-16T18:53:56.897Z,192.00
2019-05-16T18:54:57.439Z,172.00
2019-05-16T18:55:56.912Z,152.00
2019-05-16T18:56:54.961Z,136.00
2019-05-16T18:57:57.434Z,128.00
2019-05-16T18:58:57.072Z,116.00
2019-05-16T18:59:56.830Z,112.00
2019-05-16T19:00:54.985Z,96.00
2019-05-16T19:01:55.003Z,84.00
2019-05-16T19:02:56.430Z,72.00
2019-05-16T19:03:57.159Z,72.00
2019-05-16T19:04:57.557Z,72.00
2019-05-16T19:05:57.217Z,68.00